Time;durP1;ratioP1;P1;durP2;ratioP2;P2;SDS_P1;SDS_P2;PMS_P1;PMS_P2;Temp;Humidity;BMP_temperature;BMP_pressure;BME280_temperature;BME280_humidity;BME280_pressure;Samples;Min_cycle;Max_cycle;Signal;HPM_P1;HPM_P2
2021/11/27 05:01:27;;;;;;;18.33;11.27;;;3.30;99.90;;;;;;5523653;23;20538;-69
2021/11/27 05:03:53;;;;;;;22.95;13.35;;;3.30;99.90;;;;;;5009918;28;20636;-69
2021/11/27 05:06:20;;;;;;;21.58;12.60;;;3.30;99.90;;;;;;5010481;28;20304;-69
2021/11/27 05:08:47;;;;;;;18.08;11.95;;;3.30;99.90;;;;;;5010971;28;20211;-69
2021/11/27 05:11:13;;;;;;;22.27;12.02;;;3.30;99.90;;;;;;5002016;28;20224;-69
2021/11/27 05:13:40;;;;;;;16.30;11.05;;;3.30;99.90;;;;;;4991015;28;20270;-69
2021/11/27 05:16:07;;;;;;;19.95;12.35;;;3.30;99.90;;;;;;4991151;28;20699;-69
2021/11/27 05:18:35;;;;;;;17.60;13.00;;;3.30;99.90;;;;;;5025719;23;20238;-71
2021/11/27 05:21:03;;;;;;;16.10;11.20;;;3.30;99.90;;;;;;5010526;28;20207;-70
2021/11/27 05:23:29;;;;;;;21.88;11.15;;;3.40;99.90;;;;;;5013696;28;20525;-71
2021/11/27 05:25:57;;;;;;;22.77;12.98;;;3.40;99.90;;;;;;5013971;28;20607;-72
2021/11/27 05:28:23;;;;;;;19.83;11.25;;;3.40;99.90;;;;;;5003050;28;20244;-71
2021/11/27 05:30:50;;;;;;;19.42;12.45;;;3.30;99.90;;;;;;4994199;28;20239;-72
2021/11/27 05:33:23;;;;;;;23.95;12.90;;;3.40;99.90;;;;;;4993349;28;20203;-71
2021/11/27 05:35:51;;;;;;;17.92;12.40;;;3.40;99.90;;;;;;4994330;28;20629;-70
2021/11/27 05:38:18;;;;;;;20.98;12.05;;;3.40;99.90;;;;;;4994297;28;20234;-72
2021/11/27 05:40:45;;;;;;;25.75;13.35;;;3.50;99.90;;;;;;4994298;28;20211;-71
2021/11/27 05:43:11;;;;;;;19.23;12.65;;;3.40;99.90;;;;;;4993911;28;20617;-70
2021/11/27 05:45:38;;;;;;;16.35;11.32;;;3.40;99.90;;;;;;4994111;28;20228;-72
2021/11/27 05:48:05;;;;;;;22.83;13.52;;;3.50;99.90;;;;;;4990001;28;20286;-72
2021/11/27 05:50:33;;;;;;;19.75;12.70;;;3.50;99.90;;;;;;4993923;28;20208;-71
2021/11/27 05:53:01;;;;;;;19.00;11.85;;;3.50;99.90;;;;;;4994077;28;20212;-73
2021/11/27 05:55:28;;;;;;;17.13;11.55;;;3.50;99.90;;;;;;4994121;28;20206;-70
2021/11/27 05:57:55;;;;;;;19.27;13.05;;;3.50;99.90;;;;;;4993985;28;20228;-72
2021/11/27 06:00:21;;;;;;;18.95;11.82;;;3.50;99.90;;;;;;4993403;28;20203;-71
2021/11/27 06:02:48;;;;;;;22.55;13.43;;;3.50;99.90;;;;;;4994045;28;20311;-71
2021/11/27 06:05:15;;;;;;;22.92;13.32;;;3.50;99.90;;;;;;4992836;28;20211;-71
2021/11/27 06:07:42;;;;;;;17.08;11.50;;;3.60;99.90;;;;;;4993898;28;20236;-72
2021/11/27 06:10:10;;;;;;;22.83;12.75;;;3.60;99.90;;;;;;4993615;28;20204;-71
2021/11/27 06:12:38;;;;;;;24.95;12.93;;;3.60;99.90;;;;;;4993686;28;20252;-73
2021/11/27 06:15:06;;;;;;;22.65;12.88;;;3.60;99.90;;;;;;4993401;28;20235;-72
2021/11/27 06:17:33;;;;;;;20.63;11.38;;;3.60;99.90;;;;;;4993869;28;20248;-73
2021/11/27 06:20:00;;;;;;;23.20;13.77;;;3.60;99.90;;;;;;4992588;28;20307;-70
2021/11/27 06:22:27;;;;;;;18.90;12.98;;;3.60;99.90;;;;;;4993630;28;20216;-70
2021/11/27 06:24:54;;;;;;;21.90;14.93;;;3.60;99.90;;;;;;4993211;28;20224;-71
2021/11/27 06:27:22;;;;;;;20.38;13.02;;;3.60;99.90;;;;;;4993164;28;20708;-71
2021/11/27 06:29:50;;;;;;;21.27;12.43;;;3.60;99.90;;;;;;4993083;28;20624;-71
2021/11/27 06:32:22;;;;;;;20.23;13.80;;;3.60;99.90;;;;;;4993632;28;20212;-70
2021/11/27 06:34:49;;;;;;;27.05;13.80;;;3.60;99.90;;;;;;4991806;28;20250;-70
2021/11/27 06:37:15;;;;;;;16.83;12.93;;;3.70;99.90;;;;;;4991924;28;20204;-73
2021/11/27 06:39:42;;;;;;;22.98;12.45;;;3.70;99.90;;;;;;4992592;28;20223;-71
2021/11/27 06:42:09;;;;;;;24.85;13.15;;;3.70;99.90;;;;;;4993033;28;20578;-71
2021/11/27 06:44:40;;;;;;;19.15;12.38;;;3.70;99.90;;;;;;4992999;28;20219;-71
2021/11/27 06:47:07;;;;;;;20.75;12.32;;;3.60;99.90;;;;;;4993027;28;20266;-72
2021/11/27 06:49:33;;;;;;;16.27;11.23;;;3.70;99.90;;;;;;4992327;28;20212;-71
2021/11/27 06:52:00;;;;;;;19.42;11.23;;;3.70;99.90;;;;;;4993100;28;20208;-72
2021/11/27 06:54:27;;;;;;;20.25;13.10;;;3.70;99.90;;;;;;4992503;28;20222;-72
2021/11/27 06:56:53;;;;;;;23.95;12.93;;;3.70;99.90;;;;;;4993204;28;20587;-72
2021/11/27 06:59:20;;;;;;;19.15;12.00;;;3.70;99.90;;;;;;4999519;28;20239;-73
2021/11/27 07:01:48;;;;;;;18.25;12.70;;;3.70;99.90;;;;;;5005673;28;20262;-71
2021/11/27 07:04:17;;;;;;;24.40;12.43;;;3.70;99.90;;;;;;5005211;28;20235;-71
2021/11/27 07:06:44;;;;;;;21.67;12.65;;;3.70;99.90;;;;;;5007409;28;20224;-72
2021/11/27 07:09:11;;;;;;;18.88;11.25;;;3.70;99.90;;;;;;5003159;28;20228;-72
2021/11/27 07:11:39;;;;;;;22.77;11.18;;;3.70;99.90;;;;;;4995560;28;20208;-71
2021/11/27 07:14:06;;;;;;;20.17;12.45;;;3.70;99.90;;;;;;4993132;28;20235;-71
2021/11/27 07:16:32;;;;;;;20.55;12.15;;;3.70;99.90;;;;;;4992715;28;20699;-73
2021/11/27 07:19:01;;;;;;;18.65;12.88;;;3.70;99.90;;;;;;4992658;28;20231;-72
2021/11/27 07:21:27;;;;;;;17.92;11.73;;;3.70;99.90;;;;;;4992586;28;20208;-72
2021/11/27 07:23:54;;;;;;;18.98;12.38;;;3.80;99.90;;;;;;4992768;28;20223;-70
2021/11/27 07:26:21;;;;;;;17.10;10.75;;;3.80;99.90;;;;;;4986703;28;20688;-72
2021/11/27 07:28:49;;;;;;;16.67;10.32;;;3.80;99.90;;;;;;4992141;28;20223;-71
2021/11/27 07:31:15;;;;;;;21.83;11.55;;;3.80;99.90;;;;;;4992251;28;20214;-71
2021/11/27 07:33:42;;;;;;;17.95;12.15;;;3.80;99.90;;;;;;4991522;28;20683;-71
2021/11/27 07:36:11;;;;;;;19.67;12.20;;;3.80;99.90;;;;;;4992228;28;20215;-73
2021/11/27 07:38:38;;;;;;;27.02;10.90;;;3.80;99.90;;;;;;4992572;28;20731;-72
2021/11/27 07:41:05;;;;;;;21.70;12.60;;;3.80;99.90;;;;;;4992310;28;20230;-71
2021/11/27 07:43:33;;;;;;;16.85;11.82;;;3.80;99.90;;;;;;4992588;28;20204;-71
2021/11/27 07:46:00;;;;;;;17.90;12.25;;;3.80;99.90;;;;;;4991413;28;20611;-72
2021/11/27 07:48:31;;;;;;;24.60;12.13;;;3.80;99.90;;;;;;4991138;28;20748;-71
2021/11/27 07:50:58;;;;;;;21.65;12.35;;;3.80;99.90;;;;;;4992073;28;20203;-72
2021/11/27 07:53:26;;;;;;;21.90;11.63;;;3.80;99.90;;;;;;4991961;28;20203;-71
2021/11/27 07:55:53;;;;;;;17.38;10.68;;;3.90;99.90;;;;;;4992133;28;20212;-71
2021/11/27 07:58:19;;;;;;;17.50;12.75;;;3.90;99.90;;;;;;4991707;28;20232;-72
2021/11/27 08:00:46;;;;;;;16.63;10.95;;;3.90;99.90;;;;;;4991902;28;20234;-72
2021/11/27 08:03:13;;;;;;;18.58;10.98;;;3.90;99.90;;;;;;4990893;28;20215;-71
2021/11/27 08:05:40;;;;;;;16.77;10.75;;;3.80;99.90;;;;;;4992326;28;20560;-71
2021/11/27 08:08:06;;;;;;;17.05;12.35;;;3.90;99.90;;;;;;4991576;28;20643;-72
2021/11/27 08:10:34;;;;;;;22.67;13.68;;;3.90;99.90;;;;;;4991847;28;20211;-72
2021/11/27 08:13:01;;;;;;;18.38;12.18;;;3.90;99.90;;;;;;4991608;28;20214;-71
2021/11/27 08:15:28;;;;;;;18.02;10.18;;;3.90;99.90;;;;;;4988190;28;20249;-72
2021/11/27 08:17:55;;;;;;;22.38;11.40;;;3.90;99.90;;;;;;4991608;28;20236;-72
2021/11/27 08:20:21;;;;;;;13.32;10.38;;;3.90;99.90;;;;;;4990478;28;20593;-72
2021/11/27 08:22:49;;;;;;;20.88;12.60;;;3.80;99.90;;;;;;4992018;28;20280;-72
2021/11/27 08:25:15;;;;;;;13.75;10.55;;;3.90;99.90;;;;;;4991242;28;20218;-72
2021/11/27 08:27:43;;;;;;;19.33;11.52;;;3.90;99.90;;;;;;4991634;28;20657;-73
2021/11/27 08:30:12;;;;;;;15.05;9.90;;;3.90;99.90;;;;;;4991089;28;20214;-72
2021/11/27 08:32:38;;;;;;;16.90;10.55;;;3.90;99.90;;;;;;4991700;28;20219;-72
2021/11/27 08:35:06;;;;;;;11.57;8.65;;;3.90;99.90;;;;;;4990546;28;20219;-71
2021/11/27 08:37:33;;;;;;;18.60;12.80;;;3.90;99.90;;;;;;4991710;28;20231;-72
2021/11/27 08:40:01;;;;;;;19.83;11.48;;;3.90;99.90;;;;;;4991088;28;20215;-71
2021/11/27 08:42:28;;;;;;;14.85;9.57;;;3.90;99.90;;;;;;4991410;28;20290;-72
2021/11/27 08:44:56;;;;;;;19.20;12.20;;;4.00;99.90;;;;;;4991069;28;20204;-73
2021/11/27 08:47:23;;;;;;;18.20;11.00;;;4.00;99.90;;;;;;4991503;28;20611;-74
2021/11/27 08:49:49;;;;;;;12.50;8.38;;;4.00;99.90;;;;;;4990426;28;20208;-71
2021/11/27 08:52:16;;;;;;;15.98;10.93;;;4.00;99.90;;;;;;4991246;28;20274;-72
2021/11/27 08:54:43;;;;;;;17.88;10.55;;;4.00;99.90;;;;;;4991097;28;20211;-71
2021/11/27 08:57:10;;;;;;;13.65;9.52;;;4.00;99.90;;;;;;4992202;28;20208;-72
2021/11/27 08:59:37;;;;;;;16.45;10.68;;;4.00;99.90;;;;;;4994609;28;20223;-72
2021/11/27 09:02:05;;;;;;;15.77;10.95;;;4.00;99.90;;;;;;4995616;28;20207;-71
2021/11/27 09:04:33;;;;;;;17.60;11.30;;;4.00;99.90;;;;;;4992786;28;20535;-72
2021/11/27 09:07:00;;;;;;;13.90;10.60;;;4.00;99.90;;;;;;4994950;28;20223;-72
2021/11/27 09:09:28;;;;;;;20.33;11.45;;;4.00;99.90;;;;;;4994634;28;20240;-72
2021/11/27 09:11:55;;;;;;;12.15;8.88;;;4.00;99.90;;;;;;4994514;28;20211;-71
2021/11/27 09:14:22;;;;;;;12.95;8.07;;;4.00;99.90;;;;;;4995057;28;20215;-71
2021/11/27 09:16:51;;;;;;;19.23;10.80;;;4.00;99.90;;;;;;4994911;28;20211;-71
2021/11/27 09:19:19;;;;;;;15.88;9.65;;;4.00;99.90;;;;;;4993859;28;20243;-72
2021/11/27 09:21:48;;;;;;;14.00;9.90;;;4.10;99.90;;;;;;4994957;28;20212;-72
2021/11/27 09:24:15;;;;;;;18.52;12.15;;;4.10;99.90;;;;;;4994309;28;20247;-71
2021/11/27 09:26:42;;;;;;;14.98;11.45;;;4.10;99.90;;;;;;4994289;28;20246;-71
2021/11/27 09:29:10;;;;;;;16.60;10.07;;;4.10;99.90;;;;;;4994180;28;20232;-70
2021/11/27 09:31:39;;;;;;;16.92;11.40;;;4.20;99.90;;;;;;4994347;28;20214;-71
2021/11/27 09:34:07;;;;;;;12.10;7.75;;;4.20;99.90;;;;;;4993609;28;20303;-71
2021/11/27 09:36:37;;;;;;;14.75;11.43;;;4.20;99.90;;;;;;4994273;28;20339;-71
2021/11/27 09:39:05;;;;;;;23.50;12.32;;;4.20;99.90;;;;;;4994082;28;20224;-71
2021/11/27 09:41:34;;;;;;;18.83;12.07;;;4.20;99.90;;;;;;4994389;28;20232;-71
2021/11/27 09:44:03;;;;;;;25.73;11.52;;;4.20;99.90;;;;;;4994247;28;20644;-71
2021/11/27 09:46:31;;;;;;;13.02;8.82;;;4.30;99.90;;;;;;4994264;28;20207;-71
2021/11/27 09:48:59;;;;;;;19.30;10.60;;;4.30;99.90;;;;;;4993510;28;20282;-71
2021/11/27 09:51:27;;;;;;;13.35;8.85;;;4.30;99.90;;;;;;4993611;28;20641;-71
2021/11/27 09:53:57;;;;;;;19.13;11.38;;;4.30;99.90;;;;;;4989550;28;20217;-72
2021/11/27 09:56:25;;;;;;;15.63;10.38;;;4.30;99.90;;;;;;4992480;28;20211;-72
2021/11/27 09:58:53;;;;;;;11.65;7.95;;;4.30;99.90;;;;;;4993667;28;20232;-72
2021/11/27 10:01:27;;;;;;;17.25;10.38;;;4.30;99.90;;;;;;4993652;28;20278;-71
2021/11/27 10:04:00;;;;;;;16.80;11.98;;;4.30;99.90;;;;;;4992829;28;20246;-71
2021/11/27 10:06:29;;;;;;;19.27;11.70;;;4.30;99.90;;;;;;4993896;28;20212;-72
2021/11/27 10:08:57;;;;;;;15.63;10.75;;;4.40;99.90;;;;;;4992404;28;20231;-72
2021/11/27 10:11:25;;;;;;;12.95;8.13;;;4.40;99.90;;;;;;4993386;28;20657;-71
2021/11/27 10:13:52;;;;;;;14.15;7.93;;;4.30;99.90;;;;;;4993547;28;20590;-71
2021/11/27 10:16:19;;;;;;;13.10;9.38;;;4.20;99.90;;;;;;4993359;28;20219;-70
2021/11/27 10:19:03;;;;;;;14.80;10.05;;;4.10;99.90;;;;;;4991867;28;20239;-71
2021/11/27 10:21:30;;;;;;;19.88;11.13;;;4.00;99.90;;;;;;4992407;28;20215;-70
2021/11/27 10:23:58;;;;;;;18.88;11.98;;;3.90;99.90;;;;;;4992182;28;20603;-70
2021/11/27 10:26:34;;;;;;;18.48;11.60;;;3.80;99.90;;;;;;4992121;28;20207;-70
2021/11/27 10:29:19;;;;;;;18.02;12.70;;;3.80;99.90;;;;;;4992053;28;20226;-71
2021/11/27 10:31:48;;;;;;;12.05;10.07;;;3.70;99.90;;;;;;4992508;28;20274;-70
2021/11/27 10:34:20;;;;;;;19.75;11.52;;;3.70;99.90;;;;;;4991519;28;20239;-70
2021/11/27 10:36:47;;;;;;;18.55;12.27;;;3.70;99.90;;;;;;4992218;28;20644;-72
2021/11/27 10:39:15;;;;;;;17.60;11.35;;;3.70;99.90;;;;;;4991974;28;20219;-71
2021/11/27 10:41:59;;;;;;;11.43;6.90;;;3.60;99.90;;;;;;4992147;28;20211;-70
2021/11/27 10:44:29;;;;;;;18.98;11.88;;;3.60;99.90;;;;;;4989818;28;20212;-70
2021/11/27 10:47:09;;;;;;;17.88;12.30;;;3.60;99.90;;;;;;4991685;28;20204;-72
2021/11/27 10:49:36;;;;;;;17.13;11.73;;;3.60;99.90;;;;;;4990918;28;20322;-71
2021/11/27 10:52:09;;;;;;;21.85;11.65;;;3.60;99.90;;;;;;4992288;28;20231;-71
2021/11/27 10:54:49;;;;;;;25.33;11.60;;;3.60;99.90;;;;;;4992133;28;20211;-73
2021/11/27 10:57:34;;;;;;;16.63;12.48;;;3.60;99.90;;;;;;4992500;28;20250;-71
2021/11/27 11:00:06;;;;;;;17.85;11.13;;;3.60;99.90;;;;;;4991866;28;20216;-71
2021/11/27 11:02:34;;;;;;;25.23;13.85;;;3.60;99.90;;;;;;4992264;28;20211;-70
2021/11/27 11:05:10;;;;;;;18.65;11.43;;;3.60;99.90;;;;;;4991206;28;20218;-71
2021/11/27 11:07:37;;;;;;;21.42;13.48;;;3.60;99.90;;;;;;4991877;28;20227;-71
2021/11/27 11:10:19;;;;;;;19.58;11.95;;;3.60;99.90;;;;;;4991841;28;20208;-72
2021/11/27 11:12:50;;;;;;;17.05;10.52;;;3.60;99.90;;;;;;4992196;28;20251;-71
2021/11/27 11:15:21;;;;;;;21.92;13.35;;;3.70;99.90;;;;;;4989224;28;20618;-72
2021/11/27 11:17:50;;;;;;;17.33;11.43;;;3.70;99.90;;;;;;4957130;28;1039981;-70
2021/11/27 11:20:19;;;;;;;23.40;13.57;;;3.70;99.90;;;;;;4994268;28;20240;-71
2021/11/27 11:23:04;;;;;;;21.58;12.80;;;3.70;99.90;;;;;;4996163;28;20636;-71
2021/11/27 11:25:34;;;;;;;23.17;12.63;;;3.80;99.90;;;;;;4995795;28;20646;-72
2021/11/27 11:28:12;;;;;;;19.02;11.93;;;3.80;99.90;;;;;;4998276;28;20250;-72
2021/11/27 11:30:40;;;;;;;21.08;14.85;;;3.80;99.90;;;;;;4996634;28;20740;-72
2021/11/27 11:33:08;;;;;;;18.40;11.82;;;3.80;99.90;;;;;;4997181;28;20274;-72
2021/11/27 11:35:35;;;;;;;23.50;14.10;;;3.80;99.90;;;;;;4997345;28;20220;-72
2021/11/27 11:38:02;;;;;;;24.27;15.07;;;3.80;99.90;;;;;;4994133;28;20224;-72
2021/11/27 11:40:31;;;;;;;23.08;13.02;;;3.80;99.90;;;;;;4993629;28;20212;-72
2021/11/27 11:42:59;;;;;;;21.80;13.77;;;3.80;99.90;;;;;;4992826;28;20263;-71
2021/11/27 11:45:25;;;;;;;19.35;12.80;;;3.90;99.90;;;;;;4992320;28;20211;-71
2021/11/27 11:47:52;;;;;;;18.63;13.48;;;3.80;99.90;;;;;;4992025;28;20659;-72
2021/11/27 11:50:23;;;;;;;18.63;11.85;;;3.80;99.90;;;;;;4990895;28;20212;-71
2021/11/27 11:53:02;;;;;;;16.55;7.68;;;3.80;99.90;;;;;;4992152;28;20215;-71
2021/11/27 11:55:30;;;;;;;15.02;10.40;;;3.80;99.90;;;;;;4985283;28;20204;-71
2021/11/27 11:58:01;;;;;;;16.50;10.93;;;3.70;99.90;;;;;;4991725;28;20581;-71
2021/11/27 12:00:31;;;;;;;22.30;11.55;;;3.70;99.90;;;;;;4991217;28;20207;-72
2021/11/27 12:03:07;;;;;;;19.60;11.00;;;3.70;99.90;;;;;;4992310;28;20242;-72
2021/11/27 12:05:35;;;;;;;20.77;12.82;;;3.80;99.90;;;;;;4991713;28;20289;-71
2021/11/27 12:08:04;;;;;;;20.98;12.35;;;3.80;99.90;;;;;;4991450;28;20326;-72
2021/11/27 12:10:31;;;;;;;17.83;11.57;;;3.80;99.90;;;;;;4991256;28;20204;-72
2021/11/27 12:13:18;;;;;;;17.08;11.82;;;3.90;99.90;;;;;;4991540;28;20207;-72
2021/11/27 12:15:46;;;;;;;18.90;10.55;;;4.00;99.90;;;;;;4991575;28;20208;-72
2021/11/27 12:18:16;;;;;;;19.40;12.23;;;3.90;99.90;;;;;;4990319;28;20232;-71
2021/11/27 12:20:48;;;;;;;19.90;12.48;;;3.90;99.90;;;;;;4991148;28;20208;-72
2021/11/27 12:23:39;;;;;;;17.73;12.43;;;3.80;99.90;;;;;;4991130;28;20204;-71
2021/11/27 12:26:19;;;;;;;15.43;11.45;;;3.90;99.90;;;;;;4991804;28;20294;-71
2021/11/27 12:29:13;;;;;;;18.90;10.65;;;3.80;99.90;;;;;;4991369;28;20228;-73
2021/11/27 12:31:51;;;;;;;14.55;10.20;;;3.80;99.90;;;;;;4992345;28;20218;-73
2021/11/27 12:34:43;;;;;;;16.98;12.48;;;3.80;99.90;;;;;;4994541;28;20231;-73
2021/11/27 12:37:28;;;;;;;24.00;13.73;;;3.80;99.90;;;;;;4995432;28;20669;-73
2021/11/27 12:39:56;;;;;;;18.25;11.73;;;3.90;99.90;;;;;;4995138;28;20218;-73
2021/11/27 12:42:34;;;;;;;20.75;13.07;;;3.90;99.90;;;;;;4994938;28;20208;-73
2021/11/27 12:45:05;;;;;;;26.73;15.60;;;3.90;99.90;;;;;;4990738;28;20208;-73
2021/11/27 12:47:41;;;;;;;17.60;11.73;;;4.00;99.90;;;;;;4994731;28;20242;-73
2021/11/27 12:50:16;;;;;;;20.88;14.13;;;4.00;99.90;;;;;;4994290;28;20591;-73
2021/11/27 12:52:44;;;;;;;21.70;13.40;;;4.00;99.90;;;;;;4994906;28;20207;-73
2021/11/27 12:55:37;;;;;;;20.00;13.43;;;4.00;99.90;;;;;;4994941;28;20203;-73
2021/11/27 12:58:40;;;;;;;16.17;10.95;;;4.10;99.90;;;;;;4995101;28;20235;-73
2021/11/27 13:01:09;;;;;;;18.85;13.70;;;4.00;99.90;;;;;;4991896;28;20214;-74
2021/11/27 13:03:36;;;;;;;19.58;10.90;;;4.10;99.90;;;;;;4994839;28;20217;-73
2021/11/27 13:06:03;;;;;;;20.70;13.52;;;4.10;99.90;;;;;;4995000;28;20208;-73
2021/11/27 13:08:33;;;;;;;20.95;13.00;;;4.10;99.90;;;;;;4994615;28;20309;-74
2021/11/27 13:11:16;;;;;;;20.88;14.05;;;4.10;99.90;;;;;;4994419;28;20212;-73
2021/11/27 13:13:45;;;;;;;22.40;15.00;;;4.10;99.90;;;;;;4994149;28;20269;-73
2021/11/27 13:16:17;;;;;;;19.00;12.23;;;4.20;99.90;;;;;;4990574;28;20222;-73
2021/11/27 13:18:53;;;;;;;19.80;12.40;;;4.20;99.90;;;;;;4993734;28;20355;-73
2021/11/27 13:21:24;;;;;;;23.60;14.73;;;4.20;99.90;;;;;;4994272;28;20222;-73
2021/11/27 13:23:52;;;;;;;21.17;14.20;;;4.20;99.90;;;;;;4994224;28;20659;-73
2021/11/27 13:26:21;;;;;;;28.10;15.48;;;4.20;99.90;;;;;;4994348;28;20215;-73
2021/11/27 13:28:50;;;;;;;19.10;14.18;;;4.20;99.90;;;;;;4994250;28;20298;-73
2021/11/27 13:31:27;;;;;;;24.40;11.05;;;4.20;99.90;;;;;;4994204;28;20239;-73
2021/11/27 13:33:57;;;;;;;15.20;9.77;;;4.20;99.90;;;;;;4993482;28;20258;-73
2021/11/27 13:36:28;;;;;;;24.27;14.02;;;4.10;99.90;;;;;;4993872;28;20331;-73
2021/11/27 13:38:56;;;;;;;26.45;14.25;;;4.20;99.90;;;;;;4994209;28;20692;-73
2021/11/27 13:41:23;;;;;;;26.00;15.40;;;4.10;99.90;;;;;;4994079;28;20216;-73
2021/11/27 13:43:51;;;;;;;22.67;15.82;;;4.20;99.90;;;;;;4994041;28;20255;-73
2021/11/27 13:46:17;;;;;;;16.23;10.57;;;4.20;99.90;;;;;;4994151;28;20215;-73
2021/11/27 13:48:45;;;;;;;25.08;14.50;;;4.20;99.90;;;;;;4992876;28;20643;-73
2021/11/27 13:51:20;;;;;;;24.70;14.02;;;4.20;99.90;;;;;;4993725;28;20355;-73
2021/11/27 13:53:48;;;;;;;22.73;15.48;;;4.20;99.90;;;;;;4994275;28;20215;-73
2021/11/27 13:56:15;;;;;;;29.60;15.35;;;4.20;99.90;;;;;;4994886;28;20258;-73
2021/11/27 13:58:44;;;;;;;27.92;16.13;;;4.20;99.90;;;;;;4994297;28;20330;-73
2021/11/27 14:01:14;;;;;;;23.52;14.63;;;4.20;99.90;;;;;;4995969;28;20207;-73
2021/11/27 14:03:40;;;;;;;24.92;17.15;;;4.30;99.90;;;;;;5003692;28;20222;-73
2021/11/27 14:06:14;;;;;;;20.30;14.20;;;4.30;99.90;;;;;;5005541;28;20702;-73
2021/11/27 14:08:53;;;;;;;29.98;17.75;;;4.30;99.90;;;;;;4989125;28;20236;-73
2021/11/27 14:11:19;;;;;;;20.63;13.32;;;4.30;99.90;;;;;;4991611;28;20211;-73
2021/11/27 14:14:00;;;;;;;23.95;13.35;;;4.30;99.90;;;;;;4984187;28;20216;-73
2021/11/27 14:16:27;;;;;;;23.10;14.90;;;4.30;99.90;;;;;;4979415;28;20209;-73
2021/11/27 14:19:08;;;;;;;21.92;15.10;;;4.20;99.90;;;;;;4976700;28;20240;-73
2021/11/27 14:21:37;;;;;;;24.40;14.73;;;4.30;99.90;;;;;;4976179;28;20208;-73
2021/11/27 14:24:09;;;;;;;21.85;13.95;;;4.30;99.90;;;;;;4975230;28;20263;-72
2021/11/27 14:26:41;;;;;;;20.95;12.05;;;4.30;99.90;;;;;;4974484;28;20208;-74
2021/11/27 14:29:16;;;;;;;25.92;16.17;;;4.30;99.90;;;;;;4974757;28;20241;-72
2021/11/27 14:31:43;;;;;;;25.80;16.13;;;4.30;99.90;;;;;;4973873;28;20215;-73
2021/11/27 14:34:18;;;;;;;21.83;14.15;;;4.30;99.90;;;;;;4973112;28;20216;-73
2021/11/27 14:36:53;;;;;;;21.10;15.23;;;4.30;99.90;;;;;;4973415;28;20628;-73
2021/11/27 14:39:23;;;;;;;28.35;15.43;;;4.30;99.90;;;;;;4973496;28;20220;-73
2021/11/27 14:41:50;;;;;;;24.20;15.70;;;4.30;99.90;;;;;;4973744;28;20208;-72
2021/11/27 14:44:26;;;;;;;20.98;13.27;;;4.30;99.90;;;;;;4982309;28;20227;-73
2021/11/27 14:47:04;;;;;;;20.40;13.77;;;4.30;99.90;;;;;;4993040;28;20222;-73
2021/11/27 14:49:34;;;;;;;23.58;14.93;;;4.40;99.90;;;;;;4991824;28;20290;-73
2021/11/27 14:52:08;;;;;;;25.55;14.57;;;4.30;99.90;;;;;;4993851;28;20212;-73
2021/11/27 14:54:37;;;;;;;28.02;14.05;;;4.40;99.90;;;;;;4992308;28;20302;-72
2021/11/27 14:57:07;;;;;;;23.55;15.27;;;4.40;99.90;;;;;;4992862;28;20549;-72
2021/11/27 14:59:44;;;;;;;25.13;15.27;;;4.40;99.90;;;;;;4992538;28;20638;-72
2021/11/27 15:02:11;;;;;;;26.17;14.38;;;4.40;99.90;;;;;;4992657;28;20220;-73
2021/11/27 15:04:38;;;;;;;19.60;14.20;;;4.40;99.90;;;;;;4991937;28;20211;-73
2021/11/27 15:07:06;;;;;;;30.17;16.17;;;4.40;99.90;;;;;;4992960;28;20557;-73
2021/11/27 15:09:32;;;;;;;24.77;14.00;;;4.30;99.90;;;;;;4991811;28;20232;-73
2021/11/27 15:11:59;;;;;;;28.25;16.20;;;4.30;99.90;;;;;;4992610;28;20262;-73
2021/11/27 15:14:26;;;;;;;20.50;14.48;;;4.40;99.90;;;;;;4992568;28;20295;-72
2021/11/27 15:16:53;;;;;;;25.17;14.13;;;4.40;99.90;;;;;;4988791;28;20688;-73
2021/11/27 15:19:19;;;;;;;37.13;21.10;;;4.30;99.90;;;;;;4991260;28;20311;-73
2021/11/27 15:21:48;;;;;;;29.50;13.60;;;4.40;99.90;;;;;;4992238;28;20234;-73
2021/11/27 15:24:18;;;;;;;25.83;15.85;;;4.40;99.90;;;;;;4992113;28;20239;-73
2021/11/27 15:26:46;;;;;;;23.80;15.73;;;4.40;99.90;;;;;;4992188;28;20215;-73
2021/11/27 15:29:13;;;;;;;26.05;15.52;;;4.40;99.90;;;;;;4991774;28;20249;-73
2021/11/27 15:31:40;;;;;;;26.90;17.08;;;4.40;99.90;;;;;;4992303;28;20207;-73
2021/11/27 15:34:06;;;;;;;24.70;16.30;;;4.40;99.90;;;;;;4991724;28;20215;-72
2021/11/27 15:36:34;;;;;;;31.35;16.67;;;4.40;99.90;;;;;;4992309;28;20219;-72
2021/11/27 15:39:02;;;;;;;25.27;15.88;;;4.40;99.90;;;;;;4992149;28;20253;-73
2021/11/27 15:41:30;;;;;;;25.20;15.18;;;4.40;99.90;;;;;;4992456;28;20203;-73
2021/11/27 15:43:57;;;;;;;24.30;13.60;;;4.40;99.90;;;;;;4992599;28;20208;-73
2021/11/27 15:46:23;;;;;;;24.80;15.00;;;4.40;99.90;;;;;;4992571;28;20234;-73
2021/11/27 15:48:50;;;;;;;30.55;19.50;;;4.40;99.90;;;;;;4991408;28;20243;-73
2021/11/27 15:51:18;;;;;;;31.80;18.00;;;4.40;99.90;;;;;;4992197;28;20215;-73
2021/11/27 15:53:45;;;;;;;32.75;18.25;;;4.40;99.90;;;;;;4992039;28;20232;-72
2021/11/27 15:56:11;;;;;;;28.20;16.95;;;4.40;99.90;;;;;;4992308;28;20226;-72
2021/11/27 15:58:42;;;;;;;24.38;17.50;;;4.40;99.90;;;;;;4991827;28;20228;-72
2021/11/27 16:01:09;;;;;;;21.90;14.65;;;4.40;99.90;;;;;;4991614;28;20212;-72
2021/11/27 16:03:36;;;;;;;28.45;14.60;;;4.40;99.90;;;;;;4991164;28;20211;-72
2021/11/27 16:06:04;;;;;;;24.73;13.25;;;4.40;99.90;;;;;;4989270;28;20211;-72
2021/11/27 16:08:31;;;;;;;26.02;16.27;;;4.30;99.90;;;;;;4990890;28;20255;-72
2021/11/27 16:10:59;;;;;;;33.05;17.55;;;4.40;99.90;;;;;;4991306;28;20556;-72
2021/11/27 16:13:27;;;;;;;30.75;18.05;;;4.40;99.90;;;;;;4991652;28;20294;-73
2021/11/27 16:15:55;;;;;;;27.20;14.90;;;4.40;99.90;;;;;;4991496;28;20220;-73
2021/11/27 16:18:21;;;;;;;29.80;16.08;;;4.40;99.90;;;;;;4990637;28;20307;-73
2021/11/27 16:20:48;;;;;;;38.00;18.63;;;4.40;99.90;;;;;;4991279;28;20215;-72
2021/11/27 16:23:15;;;;;;;27.83;16.63;;;4.40;99.90;;;;;;4991429;28;20211;-73
2021/11/27 16:25:42;;;;;;;30.67;17.98;;;4.40;99.90;;;;;;4992294;28;20210;-73
2021/11/27 16:28:08;;;;;;;29.60;19.40;;;4.40;99.90;;;;;;4991827;28;20239;-72
2021/11/27 16:30:35;;;;;;;36.72;20.38;;;4.50;99.90;;;;;;4991299;28;20234;-72
2021/11/27 16:33:03;;;;;;;31.65;17.50;;;4.50;99.90;;;;;;4991867;28;20534;-73
2021/11/27 16:35:32;;;;;;;34.28;18.52;;;4.50;99.90;;;;;;4990982;28;20215;-73
2021/11/27 16:37:59;;;;;;;31.85;17.65;;;4.50;99.90;;;;;;4991710;28;20236;-73
2021/11/27 16:40:26;;;;;;;37.83;19.80;;;4.50;99.90;;;;;;4991286;28;20218;-72
2021/11/27 16:42:53;;;;;;;33.47;20.17;;;4.50;99.90;;;;;;4989799;28;20621;-72
2021/11/27 16:45:20;;;;;;;26.85;17.25;;;4.50;99.90;;;;;;4988839;28;20204;-73
2021/11/27 16:47:47;;;;;;;32.55;19.00;;;4.50;99.90;;;;;;4991440;28;20552;-73
2021/11/27 16:50:15;;;;;;;28.48;17.77;;;4.60;99.90;;;;;;4990028;28;20601;-72
2021/11/27 16:52:42;;;;;;;36.83;21.50;;;4.60;99.90;;;;;;4991551;28;20223;-72
2021/11/27 16:55:12;;;;;;;39.03;20.85;;;4.60;99.90;;;;;;4991323;28;20208;-73
2021/11/27 16:57:39;;;;;;;33.25;22.27;;;4.60;99.90;;;;;;4991381;28;20330;-72
2021/11/27 17:00:07;;;;;;;27.10;18.33;;;4.60;99.90;;;;;;4990853;28;20212;-71
2021/11/27 17:02:36;;;;;;;35.40;21.35;;;4.60;99.90;;;;;;4991450;28;20688;-72
2021/11/27 17:05:03;;;;;;;39.15;20.20;;;4.60;99.90;;;;;;4990781;28;20208;-72
2021/11/27 17:07:31;;;;;;;42.08;27.67;;;4.60;99.90;;;;;;4991274;28;20238;-73
2021/11/27 17:09:58;;;;;;;35.30;19.40;;;4.60;99.90;;;;;;4991903;28;20227;-73
2021/11/27 17:12:25;;;;;;;29.92;20.33;;;4.60;99.90;;;;;;4992646;28;20306;-73
2021/11/27 17:14:51;;;;;;;36.30;23.50;;;4.60;99.90;;;;;;4998225;28;20583;-73
2021/11/27 17:17:18;;;;;;;29.52;20.23;;;4.70;99.90;;;;;;5007750;28;20262;-74
2021/11/27 17:19:45;;;;;;;36.30;21.15;;;4.70;99.90;;;;;;5011711;28;20235;-74
2021/11/27 17:22:13;;;;;;;38.67;22.08;;;4.60;99.90;;;;;;5036293;23;20238;-69
2021/11/27 17:24:41;;;;;;;40.20;22.95;;;4.60;99.90;;;;;;5013856;28;20211;-68
2021/11/27 17:27:08;;;;;;;31.75;20.60;;;4.60;99.90;;;;;;5013752;28;20230;-69
2021/11/27 17:29:35;;;;;;;35.80;20.75;;;4.60;99.90;;;;;;5013861;28;20444;-69
2021/11/27 17:32:01;;;;;;;31.10;21.02;;;4.60;99.90;;;;;;4998792;28;20716;-68
2021/11/27 17:34:28;;;;;;;37.17;23.02;;;4.60;99.90;;;;;;4993487;28;20211;-69
2021/11/27 17:36:55;;;;;;;31.33;18.48;;;4.60;99.90;;;;;;4994218;28;20208;-67
2021/11/27 17:39:22;;;;;;;29.70;19.67;;;4.60;99.90;;;;;;4993898;28;20774;-67
2021/11/27 17:41:50;;;;;;;32.38;19.02;;;4.60;99.90;;;;;;4993995;28;20716;-67
2021/11/27 17:44:18;;;;;;;33.03;21.05;;;4.60;99.90;;;;;;4993854;28;20551;-68
2021/11/27 17:46:45;;;;;;;34.22;18.95;;;4.60;99.90;;;;;;4994170;28;20208;-68
2021/11/27 17:49:14;;;;;;;30.73;19.70;;;4.60;99.90;;;;;;4993252;28;20698;-68